Time;durP1;ratioP1;P1;durP2;ratioP2;P2;SDS_P1;SDS_P2;PMS_P1;PMS_P2;Temp;Humidity;BMP_temperature;BMP_pressure;BME280_temperature;BME280_humidity;BME280_pressure;Samples;Min_cycle;Max_cycle;Signal;HPM_P1;HPM_P2
2021/12/31 00:01:20;;;;;;;;;24.40;24.40;;;;;;;;5271151;28;8807;-74
2021/12/31 00:03:52;;;;;;;;;25.40;25.20;;;;;;;;5289823;28;8772;-73
2021/12/31 00:06:24;;;;;;;;;25.00;23.80;;;;;;;;5254405;28;8898;-73
2021/12/31 00:08:55;;;;;;;;;18.60;18.00;;;;;;;;5254299;28;8773;-73
2021/12/31 00:11:26;;;;;;;;;18.60;16.40;;;;;;;;5271619;28;8818;-74
2021/12/31 00:13:57;;;;;;;;;19.40;19.40;;;;;;;;5254635;28;8902;-73
2021/12/31 00:16:29;;;;;;;;;19.00;18.40;;;;;;;;5271367;28;8780;-74
2021/12/31 00:19:00;;;;;;;;;24.00;22.80;;;;;;;;5238909;28;8787;-73
2021/12/31 00:21:36;;;;;;;;;19.00;17.20;;;;;;;;5271464;28;8772;-73
2021/12/31 00:24:27;;;;;;;;;26.00;25.20;;;;;;;;5256535;28;8772;-73
2021/12/31 00:27:16;;;;;;;;;27.20;23.60;;;;;;;;5273757;28;8781;-73
2021/12/31 00:29:48;;;;;;;;;16.60;15.60;;;;;;;;5270899;28;8798;-73
2021/12/31 00:32:19;;;;;;;;;32.60;30.20;;;;;;;;5237427;28;8800;-73
2021/12/31 00:34:50;;;;;;;;;26.20;25.80;;;;;;;;5270504;28;8970;-73
2021/12/31 00:37:29;;;;;;;;;34.40;33.40;;;;;;;;5270855;28;9490;-73
2021/12/31 00:40:02;;;;;;;;;27.20;26.40;;;;;;;;5270920;28;8797;-74
2021/12/31 00:42:34;;;;;;;;;36.75;36.25;;;;;;;;5289017;28;8788;-74
2021/12/31 00:45:06;;;;;;;;;29.80;27.00;;;;;;;;5271054;28;8796;-76
2021/12/31 00:47:56;;;;;;;;;25.40;25.40;;;;;;;;5256308;28;8825;-75
2021/12/31 00:50:27;;;;;;;;;25.20;22.60;;;;;;;;5253773;28;8799;-75
2021/12/31 00:52:59;;;;;;;;;25.60;25.60;;;;;;;;5288971;28;8811;-75
2021/12/31 00:55:30;;;;;;;;;14.80;14.80;;;;;;;;5270797;28;8768;-75
2021/12/31 00:58:01;;;;;;;;;24.40;24.40;;;;;;;;5270075;28;8768;-76
2021/12/31 01:00:33;;;;;;;;;17.00;15.60;;;;;;;;5253459;28;8787;-74
2021/12/31 01:03:23;;;;;;;;;27.80;27.80;;;;;;;;5256150;28;8772;-75
2021/12/31 01:05:54;;;;;;;;;8.60;8.60;;;;;;;;5254354;28;8768;-75
2021/12/31 01:08:44;;;;;;;;;20.00;19.40;;;;;;;;5273705;28;8753;-74
2021/12/31 01:11:16;;;;;;;;;27.60;26.00;;;;;;;;5236669;28;8777;-74
2021/12/31 01:14:00;;;;;;;;;23.20;22.80;;;;;;;;5288969;28;8816;-75
2021/12/31 01:16:56;;;;;;;;;17.00;17.00;;;;;;;;5272899;28;9491;-74
2021/12/31 01:22:00;;;;;;;;;24.80;24.80;;;;;;;;5253723;28;8777;-74
2021/12/31 01:24:31;;;;;;;;;23.80;22.80;;;;;;;;5269975;28;8957;-74
2021/12/31 01:27:21;;;;;;;;;21.80;18.60;;;;;;;;5273348;28;8764;-74
2021/12/31 01:29:53;;;;;;;;;11.00;11.00;;;;;;;;5253466;28;8776;-74
2021/12/31 01:32:24;;;;;;;;;24.00;21.00;;;;;;;;5253425;28;8807;-74
2021/12/31 01:34:56;;;;;;;;;25.40;25.40;;;;;;;;5252930;28;8768;-74
2021/12/31 01:37:27;;;;;;;;;20.20;19.40;;;;;;;;5237100;28;9538;-74
2021/12/31 01:39:58;;;;;;;;;28.00;27.00;;;;;;;;5270618;28;9455;-73
2021/12/31 01:42:33;;;;;;;;;17.20;16.80;;;;;;;;5253831;28;8772;-74
2021/12/31 01:45:11;;;;;;;;;24.00;21.80;;;;;;;;5254093;28;8777;-74
2021/12/31 01:50:27;;;;;;;;;24.40;22.20;;;;;;;;5270631;28;9483;-76
2021/12/31 01:52:59;;;;;;;;;24.60;21.80;;;;;;;;5270006;28;8816;-76
2021/12/31 01:55:32;;;;;;;;;19.00;19.00;;;;;;;;5269609;28;8785;-75
2021/12/31 01:58:04;;;;;;;;;31.00;29.20;;;;;;;;5270406;28;9598;-74
2021/12/31 02:00:37;;;;;;;;;18.60;17.20;;;;;;;;5254013;28;8856;-75
2021/12/31 02:03:08;;;;;;;;;32.20;30.80;;;;;;;;5271372;28;8837;-75
2021/12/31 02:05:40;;;;;;;;;23.20;21.60;;;;;;;;5253940;28;8903;-74
2021/12/31 02:08:11;;;;;;;;;24.00;22.80;;;;;;;;5272221;28;8784;-74
2021/12/31 02:10:43;;;;;;;;;22.00;22.00;;;;;;;;5256791;28;8815;-73
2021/12/31 02:13:15;;;;;;;;;18.60;18.20;;;;;;;;5257292;28;8873;-74
2021/12/31 02:15:46;;;;;;;;;27.00;25.80;;;;;;;;5274227;28;8777;-74
2021/12/31 02:18:18;;;;;;;;;22.40;22.40;;;;;;;;5256940;28;8820;-74
2021/12/31 02:20:49;;;;;;;;;70.00;56.00;;;;;;;;5259010;28;8784;-77
2021/12/31 02:23:24;;;;;;;;;21.40;20.80;;;;;;;;5293699;28;8788;-74
2021/12/31 02:25:55;;;;;;;;;20.80;19.00;;;;;;;;5276116;28;8773;-77
2021/12/31 02:28:28;;;;;;;;;19.60;19.60;;;;;;;;5261222;28;8800;-79
2021/12/31 02:31:03;;;;;;;;;29.20;28.20;;;;;;;;5282907;28;8788;-79
2021/12/31 02:33:34;;;;;;;;;38.00;36.80;;;;;;;;5248820;28;8818;-78
2021/12/31 02:36:06;;;;;;;;;33.50;33.00;;;;;;;;5265354;28;8795;-78
2021/12/31 02:38:38;;;;;;;;;31.80;31.80;;;;;;;;5285014;28;8810;-81
2021/12/31 02:41:10;;;;;;;;;29.80;28.20;;;;;;;;5271809;28;8788;-80
2021/12/31 02:43:41;;;;;;;;;31.60;30.40;;;;;;;;5270486;28;8776;-79
2021/12/31 02:46:12;;;;;;;;;25.40;23.20;;;;;;;;5268200;28;8883;-80
2021/12/31 02:48:44;;;;;;;;;18.80;18.20;;;;;;;;5295572;28;8807;-75
2021/12/31 02:51:15;;;;;;;;;25.00;23.20;;;;;;;;5274137;28;8784;-75
2021/12/31 02:54:09;;;;;;;;;21.80;21.80;;;;;;;;5261000;28;8858;-76
2021/12/31 02:56:41;;;;;;;;;24.00;24.00;;;;;;;;5279116;28;8769;-76
2021/12/31 02:59:12;;;;;;;;;31.00;28.60;;;;;;;;5280351;28;9432;-79
2021/12/31 03:01:44;;;;;;;;;24.00;22.20;;;;;;;;5249221;28;8780;-78
2021/12/31 03:04:20;;;;;;;;;29.20;27.60;;;;;;;;5264134;28;9456;-79
2021/12/31 03:07:11;;;;;;;;;18.60;18.40;;;;;;;;5283383;28;8757;-78
2021/12/31 03:09:46;;;;;;;;;17.40;16.00;;;;;;;;5265566;28;8926;-78
2021/12/31 03:12:17;;;;;;;;;28.00;24.60;;;;;;;;5276222;28;8820;-77
2021/12/31 03:14:49;;;;;;;;;27.80;27.20;;;;;;;;5274026;28;8784;-75
2021/12/31 03:17:20;;;;;;;;;24.80;24.80;;;;;;;;5256045;28;8768;-75
2021/12/31 03:20:00;;;;;;;;;23.80;21.80;;;;;;;;5254434;28;8760;-74
2021/12/31 03:22:32;;;;;;;;;24.40;23.00;;;;;;;;5239352;28;8889;-75
2021/12/31 03:25:03;;;;;;;;;43.25;37.50;;;;;;;;5255118;28;8806;-75
2021/12/31 03:27:34;;;;;;;;;31.60;30.80;;;;;;;;5255202;28;8780;-75
2021/12/31 03:30:06;;;;;;;;;32.60;30.40;;;;;;;;5254800;28;8786;-75
2021/12/31 03:32:38;;;;;;;;;155.50;121.00;;;;;;;;5271802;28;8828;-73
2021/12/31 03:39:32;;;;;;;;;32.25;29.75;;;;;;;;5290046;28;8708;-74
2021/12/31 03:42:04;;;;;;;;;34.00;33.25;;;;;;;;5272605;28;9475;-76
2021/12/31 03:44:35;;;;;;;;;32.60;31.00;;;;;;;;5254983;28;8784;-76
2021/12/31 03:47:06;;;;;;;;;22.80;21.60;;;;;;;;5271753;28;8913;-76
2021/12/31 03:49:37;;;;;;;;;28.80;25.20;;;;;;;;5254840;28;8800;-77
2021/12/31 03:52:09;;;;;;;;;19.00;18.60;;;;;;;;5254912;28;8848;-77
2021/12/31 03:54:40;;;;;;;;;22.40;22.40;;;;;;;;5271667;28;8816;-76
2021/12/31 03:57:29;;;;;;;;;17.60;15.40;;;;;;;;5272081;28;8776;-76
2021/12/31 04:00:01;;;;;;;;;21.00;20.60;;;;;;;;5238499;28;8769;-75
2021/12/31 04:02:35;;;;;;;;;28.00;28.00;;;;;;;;5271937;28;9538;-76
2021/12/31 04:05:25;;;;;;;;;29.60;28.80;;;;;;;;5271846;28;8919;-79
2021/12/31 04:07:56;;;;;;;;;40.00;37.20;;;;;;;;5271864;28;8764;-78
2021/12/31 04:10:28;;;;;;;;;21.20;18.80;;;;;;;;5254707;28;8804;-77
2021/12/31 04:13:00;;;;;;;;;27.60;25.80;;;;;;;;5270741;28;8922;-75
2021/12/31 04:15:50;;;;;;;;;19.20;18.40;;;;;;;;5256939;28;8765;-76
2021/12/31 04:18:22;;;;;;;;;18.60;18.20;;;;;;;;5271108;28;8784;-75
2021/12/31 04:20:56;;;;;;;;;21.20;21.00;;;;;;;;5270729;28;8785;-73
2021/12/31 04:23:30;;;;;;;;;25.40;23.00;;;;;;;;5237948;28;9658;-74
2021/12/31 04:26:01;;;;;;;;;21.40;21.40;;;;;;;;5271273;28;8860;-76
2021/12/31 04:28:32;;;;;;;;;21.60;20.60;;;;;;;;5254067;28;8792;-77
2021/12/31 04:31:04;;;;;;;;;22.00;21.60;;;;;;;;5254017;28;8785;-78
2021/12/31 04:33:36;;;;;;;;;23.20;21.40;;;;;;;;5253856;28;8823;-77
2021/12/31 04:36:26;;;;;;;;;23.40;23.20;;;;;;;;5288848;28;8828;-78
2021/12/31 04:39:15;;;;;;;;;24.20;23.00;;;;;;;;5271000;28;8887;-78
2021/12/31 04:41:47;;;;;;;;;19.40;18.00;;;;;;;;5271088;28;8773;-76
2021/12/31 04:44:18;;;;;;;;;30.00;27.60;;;;;;;;5270608;28;9012;-77
2021/12/31 04:46:49;;;;;;;;;28.40;25.40;;;;;;;;5271224;28;8780;-76
2021/12/31 04:49:20;;;;;;;;;16.80;16.80;;;;;;;;5270400;28;8779;-76
2021/12/31 04:51:52;;;;;;;;;17.40;17.40;;;;;;;;5270893;28;8769;-77
2021/12/31 04:54:23;;;;;;;;;22.80;20.60;;;;;;;;5269742;28;8801;-79
2021/12/31 05:01:21;;;;;;;;;23.60;21.80;;;;;;;;5288210;28;8717;-78
2021/12/31 05:03:52;;;;;;;;;28.00;27.60;;;;;;;;5254124;28;8841;-72
2021/12/31 05:06:23;;;;;;;;;30.00;28.80;;;;;;;;5270188;28;8769;-76
2021/12/31 05:08:56;;;;;;;;;25.40;25.40;;;;;;;;5253188;28;8909;-75
2021/12/31 05:11:27;;;;;;;;;65.25;51.25;;;;;;;;5253420;28;9500;-76
2021/12/31 05:13:58;;;;;;;;;32.80;30.80;;;;;;;;5253402;28;8910;-76
2021/12/31 05:16:30;;;;;;;;;21.40;20.20;;;;;;;;5253391;28;8812;-78
2021/12/31 05:19:05;;;;;;;;;23.40;22.40;;;;;;;;5253658;28;8768;-79
2021/12/31 05:21:37;;;;;;;;;24.20;22.40;;;;;;;;5253373;28;8911;-78
2021/12/31 05:24:08;;;;;;;;;20.20;19.20;;;;;;;;5254559;28;9451;-77
2021/12/31 05:26:58;;;;;;;;;31.20;28.20;;;;;;;;5255603;28;8821;-77
2021/12/31 05:29:29;;;;;;;;;23.80;22.20;;;;;;;;5270143;28;8760;-75
2021/12/31 05:32:00;;;;;;;;;27.80;26.60;;;;;;;;5253260;28;8815;-76
2021/12/31 05:34:31;;;;;;;;;34.40;30.00;;;;;;;;5253704;28;8773;-82
2021/12/31 05:46:01;;;;;;;;;23.60;22.20;;;;;;;;5292062;28;8756;-75
2021/12/31 05:48:32;;;;;;;;;21.80;21.00;;;;;;;;5257120;28;8792;-76
2021/12/31 05:51:04;;;;;;;;;59.00;46.75;;;;;;;;5240747;28;8815;-74
2021/12/31 05:53:36;;;;;;;;;25.00;21.60;;;;;;;;5273666;28;8823;-76
2021/12/31 05:56:07;;;;;;;;;25.80;21.40;;;;;;;;5257492;28;8779;-75
2021/12/31 05:58:38;;;;;;;;;27.60;25.80;;;;;;;;5291814;28;8777;-72
2021/12/31 06:01:09;;;;;;;;;40.60;36.00;;;;;;;;5257407;28;8976;-70
2021/12/31 06:03:40;;;;;;;;;15.80;13.60;;;;;;;;5256642;28;8876;-76
2021/12/31 06:06:11;;;;;;;;;22.80;20.40;;;;;;;;5273658;28;8887;-74
2021/12/31 06:09:01;;;;;;;;;28.60;26.60;;;;;;;;5259692;28;8741;-73
2021/12/31 06:15:58;;;;;;;;;31.00;29.40;;;;;;;;5291108;28;8744;-75
2021/12/31 06:18:29;;;;;;;;;79.50;63.50;;;;;;;;5273079;28;8845;-72
2021/12/31 06:25:26;;;;;;;;;20.80;19.60;;;;;;;;5291710;28;8720;-76
2021/12/31 06:28:15;;;;;;;;;34.40;34.00;;;;;;;;5291386;28;8903;-71
2021/12/31 06:30:47;;;;;;;;;18.60;13.80;;;;;;;;5256476;28;8772;-76
2021/12/31 06:33:18;;;;;;;;;18.40;14.00;;;;;;;;5256364;28;8928;-71
2021/12/31 06:35:49;;;;;;;;;30.60;29.00;;;;;;;;5257081;28;8807;-82
2021/12/31 06:38:21;;;;;;;;;33.60;32.60;;;;;;;;5256429;28;8764;-75
2021/12/31 06:40:52;;;;;;;;;25.20;25.20;;;;;;;;5273073;28;8829;-74
2021/12/31 06:43:23;;;;;;;;;19.80;18.60;;;;;;;;5274549;28;8761;-83
2021/12/31 06:45:55;;;;;;;;;39.60;35.20;;;;;;;;5273055;28;8777;-74
2021/12/31 06:48:27;;;;;;;;;40.20;37.00;;;;;;;;5273334;28;8768;-74
2021/12/31 06:50:58;;;;;;;;;39.60;34.80;;;;;;;;5279169;28;8784;-76
2021/12/31 06:53:48;;;;;;;;;33.60;32.60;;;;;;;;5264852;28;8925;-80
2021/12/31 06:56:19;;;;;;;;;31.60;30.80;;;;;;;;5242832;28;8814;-79
2021/12/31 06:58:51;;;;;;;;;36.60;33.40;;;;;;;;5256120;28;8786;-79
2021/12/31 07:01:24;;;;;;;;;34.80;31.60;;;;;;;;5292884;28;8889;-78
2021/12/31 07:03:56;;;;;;;;;38.80;36.60;;;;;;;;5258559;28;8784;-79
2021/12/31 07:06:27;;;;;;;;;26.60;22.40;;;;;;;;5258875;28;9515;-78
2021/12/31 07:09:18;;;;;;;;;19.40;19.40;;;;;;;;5261867;28;9247;-77
2021/12/31 07:11:49;;;;;;;;;33.40;30.60;;;;;;;;5242945;28;8768;-78
2021/12/31 07:14:39;;;;;;;;;30.80;30.80;;;;;;;;5277132;28;8768;-78
2021/12/31 07:17:10;;;;;;;;;26.60;26.20;;;;;;;;5278709;28;8768;-79
2021/12/31 07:20:01;;;;;;;;;24.00;24.00;;;;;;;;5263150;28;8765;-79
2021/12/31 07:22:35;;;;;;;;;24.80;22.80;;;;;;;;5261110;28;8767;-76
2021/12/31 07:25:26;;;;;;;;;19.60;19.20;;;;;;;;5261096;28;8776;-78
2021/12/31 07:28:16;;;;;;;;;28.60;24.80;;;;;;;;5292950;28;8768;-76
2021/12/31 07:30:48;;;;;;;;;29.20;27.60;;;;;;;;5274617;28;8803;-77
2021/12/31 07:33:22;;;;;;;;;267.00;210.00;;;;;;;;5272751;28;8851;-75
2021/12/31 07:35:53;;;;;;;;;37.00;31.20;;;;;;;;5239436;28;8768;-78
2021/12/31 07:38:31;;;;;;;;;26.20;23.20;;;;;;;;5255614;28;8769;-76
2021/12/31 07:41:03;;;;;;;;;26.20;22.80;;;;;;;;5240220;28;8857;-80
2021/12/31 07:43:35;;;;;;;;;22.20;22.20;;;;;;;;5274018;28;8841;-79
2021/12/31 07:46:07;;;;;;;;;29.20;26.60;;;;;;;;5275444;28;8768;-80
2021/12/31 07:48:38;;;;;;;;;24.00;22.00;;;;;;;;5256549;28;8828;-78
2021/12/31 07:51:09;;;;;;;;;27.00;26.60;;;;;;;;5271726;28;8791;-76
2021/12/31 07:53:40;;;;;;;;;27.20;23.80;;;;;;;;5289703;28;8804;-80
2021/12/31 07:56:11;;;;;;;;;32.20;29.00;;;;;;;;5254430;28;8780;-82
2021/12/31 07:58:42;;;;;;;;;23.20;20.60;;;;;;;;5255007;28;8760;-76
2021/12/31 08:01:14;;;;;;;;;34.25;32.50;;;;;;;;5237575;28;8861;-63
2021/12/31 08:03:45;;;;;;;;;19.40;17.60;;;;;;;;5254721;28;11480;-64
2021/12/31 08:06:15;;;;;;;;;29.00;28.00;;;;;;;;5254732;28;9411;-64
2021/12/31 08:08:46;;;;;;;;;26.75;22.75;;;;;;;;5254032;28;8888;-72
2021/12/31 08:11:17;;;;;;;;;22.50;22.00;;;;;;;;5254312;28;8902;-68
2021/12/31 08:13:48;;;;;;;;;31.50;29.25;;;;;;;;5254115;28;8839;-69
2021/12/31 08:16:18;;;;;;;;;28.25;27.00;;;;;;;;5270990;28;8796;-69
2021/12/31 08:18:49;;;;;;;;;27.25;25.50;;;;;;;;5237702;28;8777;-67
2021/12/31 08:21:20;;;;;;;;;18.00;16.50;;;;;;;;5237384;28;8772;-69
2021/12/31 08:23:51;;;;;;;;;24.00;22.00;;;;;;;;5254020;28;8800;-72
2021/12/31 08:26:21;;;;;;;;;27.25;25.00;;;;;;;;5270754;28;8784;-72
2021/12/31 08:28:55;;;;;;;;;51.50;40.50;;;;;;;;5270419;28;8830;-72
2021/12/31 08:31:26;;;;;;;;;30.60;27.80;;;;;;;;5288462;28;8800;-72
2021/12/31 08:33:56;;;;;;;;;33.00;31.00;;;;;;;;5270790;28;8800;-71
2021/12/31 08:36:27;;;;;;;;;33.00;30.25;;;;;;;;5270557;28;8788;-69
2021/12/31 08:38:59;;;;;;;;;37.25;35.75;;;;;;;;5270761;28;8804;-68
2021/12/31 08:41:30;;;;;;;;;24.20;24.20;;;;;;;;5270505;28;8784;-71
2021/12/31 08:44:01;;;;;;;;;31.40;30.20;;;;;;;;5253451;28;8779;-71
2021/12/31 08:46:50;;;;;;;;;34.80;32.20;;;;;;;;5288848;28;8783;-72
2021/12/31 08:49:21;;;;;;;;;138.00;108.00;;;;;;;;5253867;28;8757;-72
2021/12/31 08:51:52;;;;;;;;;37.00;35.00;;;;;;;;5253443;28;8748;-70
2021/12/31 08:54:22;;;;;;;;;28.00;28.00;;;;;;;;5270624;28;8818;-69
2021/12/31 08:56:53;;;;;;;;;24.50;24.25;;;;;;;;5236911;28;8794;-69
2021/12/31 08:59:24;;;;;;;;;21.75;21.75;;;;;;;;5253459;28;8803;-69
2021/12/31 09:01:55;;;;;;;;;21.50;20.00;;;;;;;;5270189;28;8761;-69
2021/12/31 09:04:26;;;;;;;;;73.67;57.67;;;;;;;;5253296;28;8772;-69
2021/12/31 09:06:56;;;;;;;;;51.25;46.50;;;;;;;;5253503;28;8764;-69
2021/12/31 09:09:27;;;;;;;;;33.75;33.50;;;;;;;;5236461;28;8765;-69
2021/12/31 09:11:58;;;;;;;;;31.50;31.00;;;;;;;;5253243;28;8797;-71
2021/12/31 09:18:53;;;;;;;;;17.40;17.40;;;;;;;;5287434;28;8701;-69
2021/12/31 09:21:24;;;;;;;;;27.00;25.00;;;;;;;;5269981;28;8765;-70
2021/12/31 09:23:54;;;;;;;;;55.75;47.50;;;;;;;;5270052;28;8787;-70
2021/12/31 09:26:26;;;;;;;;;33.25;32.50;;;;;;;;5236841;28;8773;-70
2021/12/31 09:28:57;;;;;;;;;21.60;17.80;;;;;;;;5270635;28;8764;-70
2021/12/31 09:31:28;;;;;;;;;18.75;17.50;;;;;;;;5253641;28;8838;-70
2021/12/31 09:33:58;;;;;;;;;22.75;20.75;;;;;;;;5269575;28;8894;-70
2021/12/31 09:36:30;;;;;;;;;33.00;28.00;;;;;;;;5287940;28;8880;-70
2021/12/31 09:39:01;;;;;;;;;34.20;32.40;;;;;;;;5270447;28;8840;-70
2021/12/31 09:41:32;;;;;;;;;21.50;20.50;;;;;;;;5270376;28;8753;-70
2021/12/31 09:44:03;;;;;;;;;13.20;12.60;;;;;;;;5253049;28;8860;-69
2021/12/31 09:46:34;;;;;;;;;19.00;19.00;;;;;;;;5253280;28;9618;-70
2021/12/31 09:49:05;;;;;;;;;23.60;21.80;;;;;;;;5269309;28;12157;-70
2021/12/31 09:51:40;;;;;;;;;45.25;41.50;;;;;;;;5269589;28;8788;-70
2021/12/31 09:54:11;;;;;;;;;28.20;27.60;;;;;;;;5269454;28;11522;-69
2021/12/31 09:56:42;;;;;;;;;60.33;48.67;;;;;;;;5253363;28;8781;-71
2021/12/31 09:59:13;;;;;;;;;48.75;46.00;;;;;;;;5253510;28;8874;-70
2021/12/31 10:01:45;;;;;;;;;44.50;40.50;;;;;;;;5253010;28;8780;-70
2021/12/31 10:04:16;;;;;;;;;45.60;36.40;;;;;;;;5270234;28;8857;-70
2021/12/31 10:07:06;;;;;;;;;27.00;25.60;;;;;;;;5252761;28;8799;-62
2021/12/31 10:09:40;;;;;;;;;25.20;25.20;;;;;;;;5270112;28;8775;-65
2021/12/31 10:12:11;;;;;;;;;33.00;31.80;;;;;;;;5269607;28;8923;-66
2021/12/31 10:14:41;;;;;;;;;20.75;19.50;;;;;;;;5269576;28;8772;-65
2021/12/31 10:17:32;;;;;;;;;35.25;33.00;;;;;;;;5252944;28;8772;-67
2021/12/31 10:24:20;;;;;;;;;36.60;33.20;;;;;;;;5287503;28;8795;-68
2021/12/31 10:26:52;;;;;;;;;74.00;60.67;;;;;;;;5253813;28;8761;-65
2021/12/31 10:29:24;;;;;;;;;29.00;26.60;;;;;;;;5255861;28;8858;-67
2021/12/31 10:31:55;;;;;;;;;29.00;27.80;;;;;;;;5273771;28;8772;-67
2021/12/31 10:34:33;;;;;;;;;27.20;24.80;;;;;;;;5275015;28;8788;-67
2021/12/31 10:37:18;;;;;;;;;34.20;31.00;;;;;;;;5273339;28;8784;-65
2021/12/31 10:39:59;;;;;;;;;30.00;27.20;;;;;;;;5273852;28;8796;-69
2021/12/31 10:42:32;;;;;;;;;30.80;29.20;;;;;;;;5291869;28;8792;-64
2021/12/31 10:45:03;;;;;;;;;36.20;36.20;;;;;;;;5256692;28;8801;-64
2021/12/31 10:47:39;;;;;;;;;35.00;34.00;;;;;;;;5256073;28;9555;-66
2021/12/31 10:50:11;;;;;;;;;137.50;118.50;;;;;;;;5290956;28;8784;-66
2021/12/31 10:52:52;;;;;;;;;25.80;24.40;;;;;;;;5272079;28;10735;-64
2021/12/31 10:55:29;;;;;;;;;34.00;27.20;;;;;;;;5256252;28;8883;-68
2021/12/31 10:58:21;;;;;;;;;19.00;17.80;;;;;;;;5258258;28;8780;-67
2021/12/31 11:00:52;;;;;;;;;28.40;24.60;;;;;;;;5272573;28;9524;-67
2021/12/31 11:03:23;;;;;;;;;23.50;23.50;;;;;;;;5273102;28;8776;-66
2021/12/31 11:05:56;;;;;;;;;21.50;19.75;;;;;;;;5290941;28;10733;-67
2021/12/31 11:08:27;;;;;;;;;42.40;37.40;;;;;;;;5290842;28;8777;-67
2021/12/31 11:11:00;;;;;;;;;15.60;14.20;;;;;;;;5290455;28;9499;-66
2021/12/31 11:17:54;;;;;;;;;24.80;23.60;;;;;;;;5290565;28;8736;-67
2021/12/31 11:20:26;;;;;;;;;35.50;31.00;;;;;;;;5272424;28;8765;-67
2021/12/31 11:22:57;;;;;;;;;24.20;21.60;;;;;;;;5255127;28;8795;-66
2021/12/31 11:25:54;;;;;;;;;21.60;21.60;;;;;;;;5272679;28;8760;-66
2021/12/31 11:28:30;;;;;;;;;29.00;25.40;;;;;;;;5255204;28;8900;-66
2021/12/31 11:31:16;;;;;;;;;32.20;31.60;;;;;;;;5290582;28;8757;-67
2021/12/31 11:34:12;;;;;;;;;32.40;31.00;;;;;;;;5272570;28;8796;-67
2021/12/31 11:36:54;;;;;;;;;42.40;36.80;;;;;;;;5247666;28;9499;-66
2021/12/31 11:39:25;;;;;;;;;36.60;33.80;;;;;;;;5272465;28;8907;-68
2021/12/31 11:41:58;;;;;;;;;37.00;35.60;;;;;;;;5238172;28;8753;-67
2021/12/31 11:44:29;;;;;;;;;52.60;46.40;;;;;;;;5254931;28;8824;-69
2021/12/31 11:47:09;;;;;;;;;38.20;35.60;;;;;;;;5290173;28;8849;-67
2021/12/31 11:49:40;;;;;;;;;55.00;42.20;;;;;;;;5290084;28;8807;-67
2021/12/31 11:52:13;;;;;;;;;26.40;26.20;;;;;;;;5254377;28;8840;-66
2021/12/31 11:55:23;;;;;;;;;35.40;33.80;;;;;;;;5274297;28;8782;-66
2021/12/31 11:57:56;;;;;;;;;35.80;32.80;;;;;;;;5272092;28;8796;-64
2021/12/31 12:00:28;;;;;;;;;43.80;43.00;;;;;;;;5271218;28;8784;-66
2021/12/31 12:03:30;;;;;;;;;20.60;18.20;;;;;;;;5274503;28;8768;-65
2021/12/31 12:06:00;;;;;;;;;31.20;26.80;;;;;;;;5289999;28;9444;-64
2021/12/31 12:08:31;;;;;;;;;32.50;31.75;;;;;;;;5289269;28;8777;-65
2021/12/31 12:11:02;;;;;;;;;23.00;16.00;;;;;;;;5271271;28;8784;-64
2021/12/31 12:17:58;;;;;;;;;20.00;20.00;;;;;;;;5289169;28;11449;-64
2021/12/31 12:20:36;;;;;;;;;27.80;25.80;;;;;;;;5254113;28;8838;-65
2021/12/31 12:23:11;;;;;;;;;33.40;32.60;;;;;;;;5289750;28;8765;-66
2021/12/31 12:25:41;;;;;;;;;41.80;39.80;;;;;;;;5270616;28;8792;-66
2021/12/31 12:28:14;;;;;;;;;91.67;67.67;;;;;;;;5288908;28;8808;-67
2021/12/31 12:31:15;;;;;;;;;36.40;33.20;;;;;;;;5274355;28;8791;-64
2021/12/31 12:33:55;;;;;;;;;24.60;23.40;;;;;;;;5253927;28;8876;-64
2021/12/31 12:40:54;;;;;;;;;25.60;21.60;;;;;;;;5289044;28;8728;-63
2021/12/31 12:43:30;;;;;;;;;14.00;11.00;;;;;;;;5288770;28;8760;-64
2021/12/31 12:46:03;;;;;;;;;25.60;25.60;;;;;;;;5289210;28;8772;-64
2021/12/31 12:48:35;;;;;;;;;22.40;22.40;;;;;;;;5288487;28;8886;-66
2021/12/31 12:51:07;;;;;;;;;25.00;23.40;;;;;;;;5270548;28;8791;-63
2021/12/31 12:53:39;;;;;;;;;28.40;28.00;;;;;;;;5248432;28;8807;-64
2021/12/31 12:56:14;;;;;;;;;27.80;25.80;;;;;;;;5267415;28;8767;-64
2021/12/31 12:58:55;;;;;;;;;31.60;31.00;;;;;;;;5249799;28;8819;-64
2021/12/31 13:01:37;;;;;;;;;35.20;35.20;;;;;;;;5216305;28;8828;-65
2021/12/31 13:04:09;;;;;;;;;44.20;42.40;;;;;;;;5268071;28;8778;-64
2021/12/31 13:06:44;;;;;;;;;24.20;24.20;;;;;;;;5249629;28;8802;-65
2021/12/31 13:09:18;;;;;;;;;34.40;28.80;;;;;;;;5249554;28;8783;-65
2021/12/31 13:12:10;;;;;;;;;24.40;22.80;;;;;;;;5249452;28;8770;-64
2021/12/31 13:14:41;;;;;;;;;39.40;33.60;;;;;;;;5232989;28;8755;-65
2021/12/31 13:17:11;;;;;;;;;17.00;17.00;;;;;;;;5249176;28;8771;-64
2021/12/31 13:20:05;;;;;;;;;21.60;21.60;;;;;;;;5234958;28;8768;-64
2021/12/31 13:22:36;;;;;;;;;20.60;20.20;;;;;;;;5265632;28;8795;-63
2021/12/31 13:25:07;;;;;;;;;29.20;26.60;;;;;;;;5267444;28;8906;-64
2021/12/31 13:27:39;;;;;;;;;19.00;19.00;;;;;;;;5248906;28;8771;-64
2021/12/31 13:30:13;;;;;;;;;23.60;22.60;;;;;;;;5267086;28;8744;-63
2021/12/31 13:32:47;;;;;;;;;29.40;27.40;;;;;;;;5232336;28;9472;-64
2021/12/31 13:35:36;;;;;;;;;27.40;23.60;;;;;;;;5266910;28;8764;-64
2021/12/31 13:42:29;;;;;;;;;27.60;25.40;;;;;;;;5288253;28;8866;-64
2021/12/31 13:45:00;;;;;;;;;20.25;19.50;;;;;;;;5280761;28;8910;-65
2021/12/31 13:47:31;;;;;;;;;33.75;30.75;;;;;;;;5253564;28;8778;-64
2021/12/31 13:50:22;;;;;;;;;12.80;12.80;;;;;;;;5288079;28;8891;-64
2021/12/31 13:52:59;;;;;;;;;27.00;25.60;;;;;;;;5279835;28;9523;-63
2021/12/31 13:55:30;;;;;;;;;21.20;19.80;;;;;;;;5288946;27;8778;-65
2021/12/31 13:58:06;;;;;;;;;19.00;18.50;;;;;;;;5309103;27;8863;-63
2021/12/31 14:00:40;;;;;;;;;33.60;31.00;;;;;;;;5290723;27;8778;-65
2021/12/31 14:03:12;;;;;;;;;28.60;25.00;;;;;;;;5309159;27;8781;-64
2021/12/31 14:05:47;;;;;;;;;44.40;41.80;;;;;;;;5294673;27;9545;-64
2021/12/31 14:09:04;;;;;;;;;20.20;15.00;;;;;;;;5312723;27;8786;-63
2021/12/31 14:15:34;;;;;;;;;32.60;30.80;;;;;;;;5312835;27;9445;-62
2021/12/31 14:22:27;;;;;;;;;47.40;44.60;;;;;;;;5312742;27;8719;-64
2021/12/31 14:24:58;;;;;;;;;32.50;30.75;;;;;;;;5277323;27;8782;-64
2021/12/31 14:27:29;;;;;;;;;47.50;45.00;;;;;;;;5277157;27;8794;-64
2021/12/31 14:30:00;;;;;;;;;58.00;47.00;;;;;;;;5277120;27;8880;-64
2021/12/31 14:32:30;;;;;;;;;39.50;34.25;;;;;;;;5294369;27;8822;-65
2021/12/31 14:35:02;;;;;;;;;33.75;29.25;;;;;;;;5294219;27;9620;-64
2021/12/31 14:37:35;;;;;;;;;28.20;24.40;;;;;;;;5312521;27;8762;-64
2021/12/31 14:40:11;;;;;;;;;25.60;25.60;;;;;;;;5294063;27;8778;-64
2021/12/31 14:42:42;;;;;;;;;32.40;30.20;;;;;;;;5312481;27;8774;-64
2021/12/31 14:45:13;;;;;;;;;24.75;22.50;;;;;;;;5312665;27;8902;-64
2021/12/31 14:47:45;;;;;;;;;31.40;31.00;;;;;;;;5260364;27;8746;-65
2021/12/31 14:50:17;;;;;;;;;28.60;25.00;;;;;;;;5312515;27;8759;-65
2021/12/31 14:52:53;;;;;;;;;24.40;23.40;;;;;;;;5312625;27;9464;-63
2021/12/31 14:55:24;;;;;;;;;22.20;21.00;;;;;;;;5277468;27;8893;-63
2021/12/31 14:57:55;;;;;;;;;25.25;25.25;;;;;;;;5294807;27;8881;-63
2021/12/31 15:00:26;;;;;;;;;30.00;29.75;;;;;;;;5294664;27;8769;-62
2021/12/31 15:02:58;;;;;;;;;24.80;23.00;;;;;;;;5276655;27;8777;-63
2021/12/31 15:05:28;;;;;;;;;22.00;21.60;;;;;;;;5312437;27;8872;-62
2021/12/31 15:08:02;;;;;;;;;31.25;29.25;;;;;;;;5312185;27;8944;-63
2021/12/31 15:10:33;;;;;;;;;33.60;31.80;;;;;;;;5293408;27;8754;-63
2021/12/31 15:13:04;;;;;;;;;26.25;26.00;;;;;;;;5259816;27;8812;-65
2021/12/31 15:15:36;;;;;;;;;31.00;28.75;;;;;;;;5310257;27;8755;-64
2021/12/31 15:18:07;;;;;;;;;19.60;19.20;;;;;;;;5276498;27;12109;-64
2021/12/31 15:20:38;;;;;;;;;13.50;12.25;;;;;;;;5293724;27;8758;-64
2021/12/31 15:23:09;;;;;;;;;26.00;26.00;;;;;;;;5311708;27;8863;-66
2021/12/31 15:25:40;;;;;;;;;22.75;21.50;;;;;;;;5276618;27;8767;-65
2021/12/31 15:28:11;;;;;;;;;17.40;17.00;;;;;;;;5311850;27;8774;-65
2021/12/31 15:30:42;;;;;;;;;15.00;12.50;;;;;;;;5275932;27;8767;-66
2021/12/31 15:33:14;;;;;;;;;22.60;20.60;;;;;;;;5276305;27;9570;-64
2021/12/31 15:35:46;;;;;;;;;25.40;24.60;;;;;;;;5275865;27;8762;-65
2021/12/31 15:38:17;;;;;;;;;25.80;25.00;;;;;;;;5276441;27;8769;-64
2021/12/31 15:40:48;;;;;;;;;24.00;21.00;;;;;;;;5276155;27;8759;-64
2021/12/31 15:43:19;;;;;;;;;17.00;17.00;;;;;;;;5310878;27;11444;-64
2021/12/31 15:45:50;;;;;;;;;28.60;22.80;;;;;;;;5292679;27;11551;-65
2021/12/31 15:48:21;;;;;;;;;23.75;22.25;;;;;;;;5292611;27;8959;-65
2021/12/31 15:50:52;;;;;;;;;22.00;21.75;;;;;;;;5292773;27;8759;-65
2021/12/31 15:53:23;;;;;;;;;9.20;4.20;;;;;;;;5275564;27;8821;-65
2021/12/31 15:55:53;;;;;;;;;20.50;18.75;;;;;;;;5292501;27;8835;-66
2021/12/31 15:58:24;;;;;;;;;10.50;10.50;;;;;;;;5292668;27;8818;-65
2021/12/31 16:00:55;;;;;;;;;25.25;23.25;;;;;;;;5275525;27;8759;-64
2021/12/31 16:03:26;;;;;;;;;22.00;21.50;;;;;;;;5275906;27;8842;-67
2021/12/31 16:05:57;;;;;;;;;23.75;23.75;;;;;;;;5258552;27;8758;-63
2021/12/31 16:08:47;;;;;;;;;9.20;9.00;;;;;;;;5295097;27;8770;-62
2021/12/31 16:11:18;;;;;;;;;25.00;24.60;;;;;;;;5275375;27;8893;-63
2021/12/31 16:13:52;;;;;;;;;29.20;28.60;;;;;;;;5292962;27;8814;-64
2021/12/31 16:16:23;;;;;;;;;66.00;51.25;;;;;;;;5259384;27;8762;-64